createdAt,value
2019-03-26T10:25:34.953Z,48.60
2019-03-26T10:28:02.473Z,48.50
2019-03-26T10:30:31.234Z,48.50
2019-03-26T10:32:58.712Z,48.50
2019-03-26T10:35:26.174Z,48.50
2019-03-26T10:37:53.757Z,48.50
2019-03-26T10:40:22.851Z,48.40
2019-03-26T10:42:50.330Z,48.40
2019-03-26T10:45:17.789Z,48.30
2019-03-26T10:47:45.266Z,48.30
2019-03-26T10:50:12.731Z,48.30
2019-03-26T10:52:40.202Z,48.30
2019-03-26T10:55:07.666Z,48.30
2019-03-26T10:57:35.215Z,48.30
2019-03-26T11:00:03.777Z,48.30
2019-03-26T11:02:31.241Z,48.40
2019-03-26T11:04:58.793Z,48.20
2019-03-26T11:07:26.302Z,48.30
2019-03-26T11:09:53.873Z,48.20
2019-03-26T11:12:21.344Z,48.30
2019-03-26T11:14:48.814Z,48.30
2019-03-26T11:17:16.360Z,48.30
2019-03-26T11:19:46.438Z,48.20
2019-03-26T11:22:13.117Z,48.20
2019-03-26T11:24:40.581Z,48.10
2019-03-26T11:27:08.067Z,48.00
2019-03-26T11:29:35.602Z,48.00
2019-03-26T11:32:03.087Z,47.90
2019-03-26T11:34:30.552Z,47.90
2019-03-26T11:36:58.058Z,47.80
2019-03-26T11:39:32.728Z,47.80
2019-03-26T11:41:55.093Z,47.90
2019-03-26T11:44:22.561Z,47.90
2019-03-26T11:46:50.030Z,48.00
2019-03-26T11:49:17.494Z,48.00
2019-03-26T11:51:44.954Z,48.00
2019-03-26T11:54:12.425Z,47.80
2019-03-26T11:56:39.896Z,47.70
2019-03-26T11:59:07.365Z,47.70
2019-03-26T12:01:34.845Z,47.80
2019-03-26T12:04:02.475Z,47.80
2019-03-26T12:06:30.064Z,47.70
2019-03-26T12:08:57.527Z,47.70
2019-03-26T12:11:25.037Z,47.70
2019-03-26T12:13:52.497Z,47.60
2019-03-26T12:16:19.971Z,47.60
2019-03-26T12:18:47.434Z,47.50
2019-03-26T12:21:14.906Z,47.40
2019-03-26T12:23:42.378Z,47.40
2019-03-26T12:26:09.847Z,47.50
2019-03-26T12:28:37.312Z,47.60
2019-03-26T12:31:04.777Z,47.60
2019-03-26T12:33:32.258Z,47.70
2019-03-26T12:35:59.730Z,47.70
2019-03-26T12:38:27.275Z,47.60
2019-03-26T12:40:54.734Z,47.70
2019-03-26T12:43:22.198Z,47.80
2019-03-26T12:45:49.712Z,48.00
2019-03-26T12:48:17.229Z,48.00
2019-03-26T12:50:44.700Z,48.00
2019-03-26T12:53:12.807Z,48.00
2019-03-26T12:55:40.500Z,47.90
2019-03-26T12:58:07.958Z,47.90
2019-03-26T13:00:35.428Z,47.90
2019-03-26T13:03:02.896Z,48.40
2019-03-26T13:05:30.357Z,47.80
2019-03-26T13:07:57.824Z,47.80
2019-03-26T13:10:25.281Z,47.90
2019-03-26T13:12:52.751Z,47.90
2019-03-26T13:15:20.219Z,47.90
2019-03-26T13:17:47.672Z,47.80
2019-03-26T13:20:15.141Z,47.80
2019-03-26T13:22:42.601Z,47.90
2019-03-26T13:25:10.330Z,47.80
2019-03-26T13:27:37.795Z,47.70
2019-03-26T13:30:05.730Z,47.60
2019-03-26T13:32:33.185Z,47.60
2019-03-26T13:35:00.665Z,47.70
2019-03-26T13:37:28.139Z,47.70
2019-03-26T13:39:55.618Z,47.80
2019-03-26T13:42:23.085Z,47.70
2019-03-26T13:44:50.568Z,47.80
2019-03-26T13:47:18.034Z,47.70
2019-03-26T13:49:45.504Z,47.60
2019-03-26T13:52:13.006Z,47.60
2019-03-26T13:54:40.477Z,47.50
2019-03-26T13:57:07.945Z,47.60
2019-03-26T13:59:35.404Z,48.30
2019-03-26T14:02:02.873Z,47.70
2019-03-26T14:04:30.367Z,47.70
2019-03-26T14:06:57.882Z,47.60
2019-03-26T14:09:25.358Z,47.60
2019-03-26T14:11:52.820Z,47.50
2019-03-26T14:14:20.285Z,47.40
2019-03-26T14:16:47.748Z,47.60
2019-03-26T14:19:15.302Z,47.40
2019-03-26T14:21:42.770Z,47.30
2019-03-26T14:24:13.147Z,47.30
2019-03-26T14:26:39.430Z,47.30
2019-03-26T14:29:06.894Z,47.20
2019-03-26T14:31:34.365Z,47.50
2019-03-26T14:34:01.836Z,47.40
2019-03-26T14:36:29.307Z,47.30
2019-03-26T14:38:56.773Z,47.60
2019-03-26T14:41:24.238Z,47.50
2019-03-26T14:43:51.697Z,47.50
2019-03-26T14:46:19.169Z,47.60
2019-03-26T14:48:46.621Z,47.60
2019-03-26T14:51:14.089Z,47.60
2019-03-26T14:53:41.602Z,47.60
2019-03-26T14:56:09.070Z,47.70
2019-03-26T14:58:36.569Z,47.70
2019-03-26T15:01:04.092Z,47.70
2019-03-26T15:03:31.588Z,47.70
2019-03-26T15:05:59.050Z,47.70
2019-03-26T15:08:26.511Z,47.70
2019-03-26T15:11:07.262Z,47.60
2019-03-26T15:13:23.158Z,47.50
2019-03-26T15:15:51.009Z,47.40
2019-03-26T15:18:18.469Z,47.30
2019-03-26T15:20:45.939Z,47.20
2019-03-26T15:23:13.401Z,47.20
2019-03-26T15:25:40.865Z,47.20
2019-03-26T15:28:11.483Z,47.30
2019-03-26T15:30:37.511Z,47.30
2019-03-26T15:33:05.245Z,47.40
2019-03-26T15:35:32.713Z,47.40
2019-03-26T15:38:00.169Z,47.40
2019-03-26T15:40:27.630Z,47.70
2019-03-26T15:42:55.094Z,47.70
2019-03-26T15:45:22.557Z,47.70
2019-03-26T15:47:50.032Z,47.70
2019-03-26T15:50:19.118Z,47.70
2019-03-26T15:52:46.591Z,47.60
2019-03-26T15:55:14.060Z,48.30
2019-03-26T15:57:41.572Z,47.90
2019-03-26T16:00:09.033Z,47.90
2019-03-26T16:02:36.503Z,47.80
2019-03-26T16:05:05.032Z,47.80
2019-03-26T16:07:33.235Z,47.90
2019-03-26T16:10:00.846Z,48.00
2019-03-26T16:12:40.499Z,48.20
2019-03-26T16:14:57.493Z,48.20
2019-03-26T16:17:24.962Z,48.00
2019-03-26T16:19:52.618Z,48.00
2019-03-26T16:22:20.086Z,48.00
2019-03-26T16:24:47.669Z,47.90
2019-03-26T16:27:15.141Z,48.60
2019-03-26T16:29:42.607Z,47.80
2019-03-26T16:32:10.078Z,47.70
2019-03-26T16:34:37.542Z,47.70
2019-03-26T16:37:05.020Z,47.60
2019-03-26T16:39:32.484Z,47.70
2019-03-26T16:41:59.953Z,47.60
2019-03-26T16:44:27.410Z,47.70
2019-03-26T16:46:54.893Z,47.60
2019-03-26T16:49:22.365Z,47.70
2019-03-26T16:51:49.821Z,47.90
2019-03-26T16:54:17.281Z,47.90
2019-03-26T16:56:44.747Z,48.00
2019-03-26T16:59:12.222Z,47.80
2019-03-26T17:01:39.682Z,48.00
2019-03-26T17:04:07.150Z,47.90
2019-03-26T17:06:34.613Z,47.90
2019-03-26T17:09:02.098Z,47.90
2019-03-26T17:11:29.561Z,47.90
2019-03-26T17:13:57.040Z,48.00
2019-03-26T17:16:24.501Z,47.90
2019-03-26T17:18:51.965Z,47.90
2019-03-26T17:21:19.439Z,47.90
2019-03-26T17:23:46.906Z,47.90
2019-03-26T17:26:15.546Z,47.90
2019-03-26T17:28:43.253Z,47.90
2019-03-26T17:31:10.706Z,47.90
2019-03-26T17:33:38.175Z,48.10
2019-03-26T17:36:05.645Z,48.20
2019-03-26T17:38:33.115Z,48.20
2019-03-26T17:41:00.581Z,48.20
2019-03-26T17:43:28.042Z,48.20
2019-03-26T17:45:55.510Z,48.10
2019-03-26T17:48:22.981Z,48.20
2019-03-26T17:50:50.448Z,48.10
2019-03-26T17:53:17.913Z,48.10
2019-03-26T17:55:45.637Z,48.10
2019-03-26T17:58:13.106Z,48.10
2019-03-26T18:00:41.558Z,48.10
2019-03-26T18:03:09.355Z,48.80
2019-03-26T18:05:36.854Z,48.30
2019-03-26T18:08:04.321Z,48.40
2019-03-26T18:10:31.789Z,48.30
2019-03-26T18:12:59.259Z,48.30
2019-03-26T18:15:26.724Z,48.50
2019-03-26T18:17:54.186Z,48.50
2019-03-26T18:20:31.911Z,48.60
2019-03-26T18:22:50.853Z,48.80
2019-03-26T18:25:18.322Z,48.80
2019-03-26T18:27:45.787Z,48.90
2019-03-26T18:30:13.258Z,48.90
2019-03-26T18:32:40.727Z,48.80
2019-03-26T18:35:08.203Z,48.80
2019-03-26T18:37:35.671Z,48.70
2019-03-26T18:40:03.922Z,48.60
2019-03-26T18:42:43.501Z,48.50
2019-03-26T18:45:00.590Z,48.50
2019-03-26T18:47:28.054Z,48.40
2019-03-26T18:49:55.524Z,48.30
2019-03-26T18:52:22.995Z,48.40
2019-03-26T18:54:50.754Z,48.50
2019-03-26T18:57:18.345Z,48.50
2019-03-26T18:59:45.817Z,48.50
2019-03-26T19:02:13.286Z,48.50
2019-03-26T19:04:40.761Z,48.60
2019-03-26T19:07:08.229Z,48.70
2019-03-26T19:09:35.717Z,48.60
2019-03-26T19:12:03.187Z,48.90
2019-03-26T19:14:30.649Z,48.50
2019-03-26T19:16:58.149Z,48.60
2019-03-26T19:19:25.634Z,48.60
2019-03-26T19:21:53.082Z,48.60
2019-03-26T19:24:20.546Z,48.60
2019-03-26T19:26:48.015Z,48.60
2019-03-26T19:29:15.477Z,48.50
2019-03-26T19:31:42.954Z,48.40
2019-03-26T19:34:10.413Z,48.40
2019-03-26T19:36:38.236Z,48.40
2019-03-26T19:39:06.762Z,48.40
2019-03-26T19:41:34.337Z,48.30
2019-03-26T19:44:01.825Z,48.40
2019-03-26T19:46:29.296Z,48.50
2019-03-26T19:48:56.764Z,48.60
2019-03-26T19:51:24.241Z,48.50
2019-03-26T19:53:51.723Z,48.40
2019-03-26T19:56:19.200Z,49.00
2019-03-26T19:58:46.674Z,48.30
2019-03-26T20:01:14.144Z,48.20
2019-03-26T20:03:41.694Z,48.30
2019-03-26T20:06:13.841Z,48.20
2019-03-26T20:08:39.529Z,48.30
2019-03-26T20:11:07.006Z,48.30
2019-03-26T20:13:34.481Z,48.30
2019-03-26T20:16:02.027Z,48.30
2019-03-26T20:18:29.540Z,48.30
2019-03-26T20:20:57.026Z,48.30
2019-03-26T20:23:25.689Z,48.40
2019-03-26T20:25:53.145Z,48.40
2019-03-26T20:28:20.629Z,48.50
2019-03-26T20:30:48.082Z,48.60
2019-03-26T20:33:15.545Z,48.60
2019-03-26T20:35:43.002Z,48.50
2019-03-26T20:38:10.477Z,48.50
2019-03-26T20:40:37.937Z,48.50
2019-03-26T20:43:05.403Z,48.50
2019-03-26T20:45:32.869Z,48.50
2019-03-26T20:48:00.349Z,48.50
2019-03-26T20:50:27.806Z,48.30
2019-03-26T20:52:55.278Z,48.20
2019-03-26T20:55:29.404Z,48.20
2019-03-26T20:57:56.882Z,48.20
2019-03-26T21:00:25.971Z,48.20
2019-03-26T21:02:53.440Z,48.20
2019-03-26T21:05:20.906Z,48.20
2019-03-26T21:07:48.377Z,48.80
2019-03-26T21:10:15.846Z,49.20
2019-03-26T21:12:43.314Z,48.60
2019-03-26T21:15:10.773Z,48.80
2019-03-26T21:17:38.245Z,48.90
2019-03-26T21:20:06.975Z,48.90
2019-03-26T21:22:34.450Z,48.80
2019-03-26T21:25:01.910Z,48.90
2019-03-26T21:27:29.369Z,48.80
2019-03-26T21:30:09.729Z,48.80
2019-03-26T21:32:26.031Z,48.80
2019-03-26T21:34:53.563Z,48.70
2019-03-26T21:37:21.139Z,48.60
2019-03-26T21:39:48.608Z,48.60
2019-03-26T21:42:16.070Z,48.50
2019-03-26T21:44:43.530Z,48.40
2019-03-26T21:47:11.059Z,48.30
2019-03-26T21:49:38.809Z,48.30
2019-03-26T21:52:06.270Z,48.20
2019-03-26T21:54:33.734Z,48.30
2019-03-26T21:57:01.195Z,48.40
2019-03-26T21:59:28.649Z,48.40
2019-03-26T22:01:56.118Z,48.40
2019-03-26T22:04:23.582Z,48.30
2019-03-26T22:06:51.046Z,48.20
2019-03-26T22:09:18.561Z,48.10
2019-03-26T22:11:50.092Z,48.00
2019-03-26T22:14:18.307Z,48.10
2019-03-26T22:16:44.645Z,48.10
2019-03-26T22:19:12.123Z,48.20
2019-03-26T22:21:39.587Z,48.20
2019-03-26T22:24:07.067Z,48.10
2019-03-26T22:26:34.529Z,48.10
2019-03-26T22:29:02.006Z,48.10
2019-03-26T22:31:29.466Z,48.10
2019-03-26T22:33:56.958Z,48.20
2019-03-26T22:36:24.413Z,48.30
2019-03-26T22:38:51.873Z,48.40
2019-03-26T22:41:19.345Z,48.40
2019-03-26T22:43:46.810Z,48.30
2019-03-26T22:46:14.279Z,48.20
2019-03-26T22:48:41.746Z,48.80
2019-03-26T22:51:09.200Z,48.20
2019-03-26T22:53:36.664Z,48.10
2019-03-26T22:56:04.206Z,48.00
2019-03-26T22:58:31.665Z,47.90
2019-03-26T23:00:59.133Z,47.90
2019-03-26T23:03:26.586Z,47.80
2019-03-26T23:05:54.055Z,47.80
2019-03-26T23:08:21.524Z,47.80
2019-03-26T23:10:48.985Z,47.80
2019-03-26T23:13:16.451Z,47.80
2019-03-26T23:15:43.918Z,47.70
2019-03-26T23:18:11.382Z,47.90
2019-03-26T23:20:38.940Z,47.90
2019-03-26T23:23:06.396Z,47.90
2019-03-26T23:25:33.942Z,47.90
2019-03-26T23:28:01.397Z,47.90
2019-03-26T23:30:28.878Z,47.90
2019-03-26T23:32:56.344Z,47.80
2019-03-26T23:35:23.813Z,47.70
2019-03-26T23:37:51.281Z,47.70
2019-03-26T23:40:18.750Z,48.50
2019-03-26T23:42:46.217Z,47.80
2019-03-26T23:45:13.684Z,47.80
2019-03-26T23:47:41.151Z,47.70
2019-03-26T23:50:08.624Z,47.70
2019-03-26T23:52:36.161Z,47.70
2019-03-26T23:55:04.889Z,47.60
2019-03-26T23:57:32.361Z,47.70
2019-03-26T23:59:59.817Z,47.90
